Time;durP1;ratioP1;P1;durP2;ratioP2;P2;SDS_P1;SDS_P2;PMS_P1;PMS_P2;Temp;Humidity;BMP_temperature;BMP_pressure;BME280_temperature;BME280_humidity;BME280_pressure;Samples;Min_cycle;Max_cycle;Signal;HPM_P1;HPM_P2
2023/10/22 00:00:38;;;;;;;19.48;13.77;;;17.20;99.90;;;;;;5125236;28;20029;-74
2023/10/22 00:03:09;;;;;;;20.15;13.77;;;17.10;99.90;;;;;;5126217;28;20090;-74
2023/10/22 00:05:40;;;;;;;19.88;13.75;;;16.90;99.90;;;;;;5126282;28;20027;-74
2023/10/22 00:08:11;;;;;;;18.00;13.15;;;16.90;99.90;;;;;;5125978;28;20058;-78
2023/10/22 00:10:42;;;;;;;19.38;12.75;;;17.00;99.90;;;;;;5125679;28;20055;-74
2023/10/22 00:13:13;;;;;;;20.10;12.68;;;17.00;99.90;;;;;;5126141;28;20449;-74
2023/10/22 00:15:43;;;;;;;18.55;13.45;;;16.80;99.90;;;;;;5125675;28;20042;-74
2023/10/22 00:18:14;;;;;;;18.98;13.00;;;16.90;99.90;;;;;;5125437;28;20419;-74
2023/10/22 00:20:45;;;;;;;22.73;14.48;;;16.80;99.90;;;;;;5123505;29;20039;-74
2023/10/22 00:23:16;;;;;;;21.77;14.40;;;16.60;99.90;;;;;;5123349;29;20035;-74
2023/10/22 00:25:48;;;;;;;20.35;14.25;;;16.60;99.90;;;;;;5124814;28;20035;-74
2023/10/22 00:28:19;;;;;;;21.35;13.60;;;16.70;99.90;;;;;;5123777;29;20015;-75
2023/10/22 00:30:49;;;;;;;18.25;13.88;;;16.70;99.90;;;;;;5124548;28;20384;-75
2023/10/22 00:33:20;;;;;;;19.70;13.10;;;16.80;99.90;;;;;;5124833;28;20074;-78
2023/10/22 00:35:56;;;;;;;23.45;13.57;;;16.60;99.90;;;;;;5125638;28;20030;-74
2023/10/22 00:38:26;;;;;;;16.35;13.05;;;16.40;99.90;;;;;;5125740;28;20062;-75
2023/10/22 00:40:57;;;;;;;17.30;14.13;;;16.40;99.90;;;;;;5126211;28;20046;-76
2023/10/22 00:43:28;;;;;;;18.10;14.02;;;16.20;99.90;;;;;;5125914;28;20475;-75
2023/10/22 00:45:59;;;;;;;25.15;14.77;;;16.30;99.90;;;;;;5125147;28;20035;-75
2023/10/22 00:48:30;;;;;;;16.42;13.23;;;16.40;99.90;;;;;;5125542;28;20443;-75
2023/10/22 00:51:02;;;;;;;17.17;13.45;;;16.20;99.90;;;;;;5125201;28;20027;-74
2023/10/22 00:53:33;;;;;;;17.83;13.65;;;16.40;99.90;;;;;;5125365;28;20087;-74
2023/10/22 00:56:05;;;;;;;24.15;13.40;;;16.30;99.90;;;;;;5125427;28;20031;-75
2023/10/22 00:58:37;;;;;;;16.55;12.90;;;16.40;99.90;;;;;;5125320;28;20023;-78
2023/10/22 01:01:09;;;;;;;18.67;13.05;;;16.30;99.90;;;;;;5125027;28;20035;-74
2023/10/22 01:03:40;;;;;;;16.92;12.27;;;16.40;99.90;;;;;;5125039;28;20019;-78
2023/10/22 01:06:12;;;;;;;23.60;13.02;;;16.30;99.90;;;;;;5124344;28;20061;-74
2023/10/22 01:08:44;;;;;;;17.35;11.95;;;16.40;99.90;;;;;;5124268;28;20118;-74
2023/10/22 01:11:15;;;;;;;18.65;11.77;;;16.30;99.90;;;;;;5124526;28;20406;-74
2023/10/22 01:13:46;;;;;;;18.38;12.25;;;16.30;99.90;;;;;;5124895;28;20023;-74
2023/10/22 01:16:16;;;;;;;19.52;11.88;;;16.20;99.90;;;;;;5123787;28;20063;-74
2023/10/22 01:18:47;;;;;;;13.45;10.90;;;16.30;99.90;;;;;;5123852;28;20515;-75
2023/10/22 01:21:18;;;;;;;21.05;11.10;;;16.20;99.90;;;;;;5122517;29;20038;-74
2023/10/22 01:23:49;;;;;;;21.77;12.30;;;16.30;99.90;;;;;;5123499;28;20019;-74
2023/10/22 01:26:19;;;;;;;15.95;10.65;;;16.30;99.90;;;;;;5122249;29;20046;-75
2023/10/22 01:28:54;;;;;;;17.27;10.40;;;16.40;99.90;;;;;;5123243;28;20456;-75
2023/10/22 01:31:25;;;;;;;18.45;10.38;;;16.50;99.90;;;;;;5142981;28;20102;-74
2023/10/22 01:33:56;;;;;;;15.27;10.70;;;16.50;99.90;;;;;;5144413;28;20030;-75
2023/10/22 01:36:27;;;;;;;15.38;9.85;;;16.70;99.90;;;;;;5134577;28;20379;-75
2023/10/22 01:38:58;;;;;;;17.85;10.18;;;16.90;99.90;;;;;;5124774;29;20078;-75
2023/10/22 01:41:29;;;;;;;16.92;9.88;;;16.90;99.90;;;;;;5124863;28;20163;-75
2023/10/22 01:43:59;;;;;;;15.90;9.82;;;16.80;99.90;;;;;;5123552;29;20454;-75
2023/10/22 01:46:30;;;;;;;14.75;9.82;;;16.70;99.90;;;;;;5123361;29;20027;-74
2023/10/22 01:49:01;;;;;;;21.10;9.75;;;16.80;99.90;;;;;;5124607;28;20035;-74
2023/10/22 01:51:32;;;;;;;14.35;9.57;;;16.90;99.90;;;;;;5128879;28;20041;-76
2023/10/22 01:54:05;;;;;;;18.05;11.15;;;16.80;99.90;;;;;;5127662;28;20015;-74
2023/10/22 01:56:35;;;;;;;16.48;9.75;;;16.80;99.90;;;;;;5129323;28;20035;-74
2023/10/22 01:59:06;;;;;;;12.82;9.95;;;16.90;99.90;;;;;;5129041;28;20464;-75
2023/10/22 02:01:37;;;;;;;13.50;10.60;;;16.90;99.90;;;;;;5128693;29;20058;-75
2023/10/22 02:04:08;;;;;;;12.57;10.30;;;16.70;99.90;;;;;;5128409;28;20022;-74
2023/10/22 02:06:39;;;;;;;19.02;10.38;;;16.60;99.90;;;;;;5128387;28;20038;-74
2023/10/22 02:09:10;;;;;;;13.05;9.80;;;16.60;99.90;;;;;;5127302;28;20051;-78
2023/10/22 02:11:41;;;;;;;14.88;9.60;;;16.70;99.90;;;;;;5128122;28;20023;-74
2023/10/22 02:14:12;;;;;;;11.18;9.40;;;16.60;99.90;;;;;;5127331;29;20548;-75
2023/10/22 02:16:42;;;;;;;16.90;9.50;;;16.60;99.90;;;;;;5125745;29;20558;-74
2023/10/22 02:19:13;;;;;;;12.40;9.27;;;16.90;99.90;;;;;;5125705;28;20464;-74
2023/10/22 02:21:45;;;;;;;14.07;9.10;;;16.70;99.90;;;;;;5126935;29;20361;-74
2023/10/22 02:24:16;;;;;;;16.02;8.70;;;16.70;99.90;;;;;;5127233;28;20026;-74
2023/10/22 02:26:47;;;;;;;15.80;8.60;;;16.80;99.90;;;;;;5126555;29;20476;-74
2023/10/22 02:29:18;;;;;;;16.50;9.43;;;16.50;99.90;;;;;;5126623;29;20137;-75
2023/10/22 02:31:48;;;;;;;15.50;9.70;;;16.60;99.90;;;;;;5127923;29;20154;-78
2023/10/22 02:34:19;;;;;;;18.35;10.25;;;16.50;99.90;;;;;;5127802;28;20039;-74
2023/10/22 02:36:50;;;;;;;14.93;10.40;;;16.50;99.90;;;;;;5127864;29;20046;-74
2023/10/22 02:39:21;;;;;;;12.38;9.82;;;16.80;99.90;;;;;;5127818;28;20051;-74
2023/10/22 02:41:52;;;;;;;14.60;10.70;;;16.70;99.90;;;;;;5127828;28;20380;-75
2023/10/22 02:44:23;;;;;;;16.48;10.95;;;16.70;99.90;;;;;;5128091;28;20039;-74
2023/10/22 02:46:54;;;;;;;12.10;10.50;;;16.70;99.90;;;;;;5126521;29;20034;-78
2023/10/22 02:49:30;;;;;;;15.13;10.10;;;16.90;99.90;;;;;;5126200;28;20046;-75
2023/10/22 02:52:05;;;;;;;16.38;10.93;;;16.70;99.90;;;;;;5126315;29;20023;-79
2023/10/22 02:54:36;;;;;;;14.63;10.38;;;16.70;99.90;;;;;;5126600;29;20498;-74
2023/10/22 02:57:06;;;;;;;12.52;9.95;;;16.60;99.90;;;;;;5127780;29;20019;-79
2023/10/22 02:59:37;;;;;;;14.32;10.98;;;16.60;99.90;;;;;;5143248;28;20031;-74
2023/10/22 03:02:08;;;;;;;19.27;10.68;;;16.60;99.90;;;;;;5147305;28;20398;-75
2023/10/22 03:04:39;;;;;;;14.10;11.23;;;16.50;99.90;;;;;;5145557;28;20034;-75
2023/10/22 03:07:09;;;;;;;14.18;11.35;;;16.50;99.90;;;;;;5146735;28;20593;-74
2023/10/22 03:09:40;;;;;;;17.63;11.35;;;16.60;99.90;;;;;;5146046;28;20074;-75
2023/10/22 03:12:11;;;;;;;17.67;10.70;;;16.60;99.90;;;;;;5146423;28;20047;-74
2023/10/22 03:14:42;;;;;;;13.32;11.27;;;16.60;99.90;;;;;;5145053;28;20023;-75
2023/10/22 03:17:13;;;;;;;15.52;11.10;;;16.80;99.90;;;;;;5145899;28;20034;-74
2023/10/22 03:19:44;;;;;;;12.05;10.50;;;16.80;99.90;;;;;;5145873;28;20034;-75
2023/10/22 03:22:15;;;;;;;15.77;9.60;;;16.80;99.90;;;;;;5145181;28;20490;-74
2023/10/22 03:24:49;;;;;;;12.82;10.73;;;16.90;99.90;;;;;;5145744;28;20026;-74
2023/10/22 03:27:20;;;;;;;13.25;10.05;;;16.70;99.90;;;;;;5145749;28;20030;-75
2023/10/22 03:29:51;;;;;;;12.32;9.55;;;16.50;99.90;;;;;;5146596;28;20043;-74
2023/10/22 03:32:22;;;;;;;15.63;10.45;;;16.50;99.90;;;;;;5146027;28;20019;-75
2023/10/22 03:34:53;;;;;;;12.98;10.15;;;16.50;99.90;;;;;;5146964;28;20371;-74
2023/10/22 03:37:23;;;;;;;13.82;11.23;;;16.40;99.90;;;;;;5146787;28;20015;-74
2023/10/22 03:39:54;;;;;;;14.90;10.63;;;16.40;99.90;;;;;;5146538;28;20042;-75
2023/10/22 03:42:25;;;;;;;12.63;10.82;;;16.60;99.90;;;;;;5145484;28;20105;-74
2023/10/22 03:44:56;;;;;;;15.98;9.88;;;16.50;99.90;;;;;;5146943;28;20111;-74
2023/10/22 03:47:27;;;;;;;11.40;9.25;;;16.50;99.90;;;;;;5146520;28;20022;-74
2023/10/22 03:49:58;;;;;;;10.73;9.07;;;16.60;99.90;;;;;;5146292;28;20086;-80
2023/10/22 03:52:28;;;;;;;15.20;9.45;;;16.50;99.90;;;;;;5146453;28;20034;-75
2023/10/22 03:54:59;;;;;;;15.50;8.48;;;16.50;99.90;;;;;;5146455;28;20041;-74
2023/10/22 03:57:30;;;;;;;13.38;9.80;;;16.50;99.90;;;;;;5146805;28;20379;-74
2023/10/22 04:00:01;;;;;;;15.30;9.48;;;16.50;99.90;;;;;;5144503;28;20031;-74
2023/10/22 04:02:32;;;;;;;18.98;9.63;;;16.30;99.90;;;;;;5145787;28;20031;-74
2023/10/22 04:05:03;;;;;;;14.25;10.27;;;16.40;99.90;;;;;;5145146;28;20479;-76
2023/10/22 04:07:33;;;;;;;17.98;9.20;;;16.20;99.90;;;;;;5145102;28;20430;-74
2023/10/22 04:10:09;;;;;;;13.95;9.45;;;16.30;99.90;;;;;;5143471;28;20059;-77
2023/10/22 04:12:40;;;;;;;11.75;9.25;;;16.60;99.90;;;;;;5143688;28;20027;-75
2023/10/22 04:15:11;;;;;;;15.43;9.13;;;16.50;99.90;;;;;;5145012;28;20031;-75
2023/10/22 04:17:46;;;;;;;12.63;9.45;;;16.50;99.90;;;;;;5145408;28;20015;-74
2023/10/22 04:20:17;;;;;;;13.43;9.88;;;16.50;99.90;;;;;;5146239;28;20027;-77
2023/10/22 04:22:48;;;;;;;14.13;10.20;;;16.50;99.90;;;;;;5145058;28;20027;-75
2023/10/22 04:25:18;;;;;;;14.15;10.38;;;16.50;99.90;;;;;;5145906;28;20081;-74
2023/10/22 04:27:49;;;;;;;15.35;10.18;;;16.50;99.90;;;;;;5146048;28;20525;-74
2023/10/22 04:30:20;;;;;;;18.27;10.38;;;16.30;99.90;;;;;;5145515;28;20050;-74
2023/10/22 04:32:51;;;;;;;14.82;9.90;;;16.20;99.90;;;;;;5145890;28;20483;-75
2023/10/22 04:35:22;;;;;;;15.60;10.35;;;16.20;99.90;;;;;;5145703;28;20031;-74
2023/10/22 04:37:55;;;;;;;16.15;10.32;;;16.20;99.90;;;;;;5145471;28;20030;-74
2023/10/22 04:40:34;;;;;;;11.10;9.82;;;16.20;99.90;;;;;;5144517;28;20042;-74
2023/10/22 04:43:05;;;;;;;13.45;10.15;;;16.30;99.90;;;;;;5146144;28;20026;-76
2023/10/22 04:45:36;;;;;;;15.43;10.68;;;16.50;99.90;;;;;;5145189;28;20035;-75
2023/10/22 04:48:07;;;;;;;12.75;10.75;;;16.30;99.90;;;;;;5145222;28;20398;-75
2023/10/22 04:50:38;;;;;;;15.95;9.73;;;16.10;99.90;;;;;;5145286;28;20035;-74
2023/10/22 04:53:09;;;;;;;15.05;10.63;;;16.30;99.90;;;;;;5145359;28;20027;-74
2023/10/22 04:55:40;;;;;;;13.23;10.70;;;16.30;99.90;;;;;;5143709;28;20077;-74
2023/10/22 04:58:11;;;;;;;16.52;10.80;;;16.40;99.90;;;;;;5145204;28;20498;-74
2023/10/22 05:00:47;;;;;;;12.18;10.82;;;16.60;99.90;;;;;;5144212;28;20019;-75
2023/10/22 05:03:18;;;;;;;15.00;11.15;;;16.60;99.90;;;;;;5144261;28;20030;-75
2023/10/22 05:05:48;;;;;;;13.65;11.05;;;16.60;99.90;;;;;;5142704;28;20026;-75
2023/10/22 05:08:23;;;;;;;17.95;11.00;;;16.70;99.90;;;;;;5143821;28;20423;-74
2023/10/22 05:10:53;;;;;;;15.23;11.30;;;16.70;99.90;;;;;;5144006;28;20078;-75
2023/10/22 05:13:24;;;;;;;13.55;11.38;;;16.90;99.90;;;;;;5144214;28;20066;-76
2023/10/22 05:15:56;;;;;;;14.10;11.35;;;16.90;99.90;;;;;;5143544;28;20109;-78
2023/10/22 05:18:27;;;;;;;14.52;11.45;;;16.90;99.90;;;;;;5144851;28;20027;-74
2023/10/22 05:21:05;;;;;;;16.48;12.25;;;16.90;99.90;;;;;;5144999;28;20102;-74
2023/10/22 05:23:36;;;;;;;15.23;12.50;;;17.00;99.90;;;;;;5143996;28;20030;-74
2023/10/22 05:26:09;;;;;;;14.38;12.85;;;17.20;99.90;;;;;;5145136;28;20026;-75
2023/10/22 05:28:40;;;;;;;17.60;15.90;;;17.30;99.90;;;;;;5143755;28;20431;-75
2023/10/22 05:31:14;;;;;;;19.35;17.45;;;17.50;99.90;;;;;;5143709;28;20041;-75
2023/10/22 05:33:45;;;;;;;20.60;18.40;;;17.60;99.90;;;;;;5143592;28;20031;-74
2023/10/22 05:36:20;;;;;;;15.63;14.05;;;17.80;99.90;;;;;;5145250;28;20031;-74
2023/10/22 05:38:51;;;;;;;18.00;13.32;;;17.80;99.90;;;;;;5144745;28;20085;-75
2023/10/22 05:41:25;;;;;;;17.35;12.77;;;17.90;99.90;;;;;;5144502;28;20059;-75
2023/10/22 05:44:01;;;;;;;16.42;12.18;;;18.10;99.90;;;;;;5144842;28;20383;-78
2023/10/22 05:46:33;;;;;;;13.73;11.13;;;18.40;99.90;;;;;;5144782;28;20058;-74
2023/10/22 05:49:05;;;;;;;12.60;8.38;;;18.30;99.90;;;;;;5143173;28;20027;-76
2023/10/22 05:51:36;;;;;;;13.73;8.63;;;18.30;99.90;;;;;;5143911;28;20566;-74
2023/10/22 05:54:07;;;;;;;12.63;9.85;;;18.30;99.90;;;;;;5144035;28;20102;-75
2023/10/22 05:56:37;;;;;;;14.93;9.65;;;18.40;99.90;;;;;;5143574;28;20379;-75
2023/10/22 05:59:09;;;;;;;14.88;10.82;;;18.40;99.90;;;;;;5143554;28;20027;-75
2023/10/22 06:01:41;;;;;;;12.52;9.93;;;18.30;99.90;;;;;;5143348;28;20031;-74
2023/10/22 06:04:12;;;;;;;12.52;9.80;;;18.30;99.90;;;;;;5143268;28;20090;-74
2023/10/22 06:06:43;;;;;;;15.23;10.07;;;18.40;99.90;;;;;;5128743;28;20054;-75
2023/10/22 06:09:14;;;;;;;13.60;9.75;;;18.40;99.90;;;;;;5115420;28;20071;-74
2023/10/22 06:11:46;;;;;;;14.75;9.20;;;18.40;99.90;;;;;;5120187;29;20039;-73
2023/10/22 06:14:17;;;;;;;10.57;9.50;;;18.80;99.90;;;;;;5132299;28;20031;-73
2023/10/22 06:16:47;;;;;;;12.23;8.57;;;18.80;99.90;;;;;;5144101;28;20086;-77
2023/10/22 06:19:18;;;;;;;10.27;8.38;;;19.00;99.90;;;;;;5133939;28;20026;-73
2023/10/22 06:21:49;;;;;;;12.35;8.65;;;18.90;99.90;;;;;;5124099;29;20035;-73
2023/10/22 06:24:21;;;;;;;13.43;8.63;;;19.10;99.90;;;;;;5119280;28;20019;-79
2023/10/22 06:26:52;;;;;;;13.07;8.25;;;19.00;99.90;;;;;;5117522;29;20027;-73
2023/10/22 06:29:23;;;;;;;12.45;7.15;;;19.30;99.90;;;;;;5118659;28;20043;-75
2023/10/22 06:31:54;;;;;;;10.27;8.13;;;19.50;99.90;;;;;;5124443;28;20027;-74
2023/10/22 06:34:25;;;;;;;14.40;8.45;;;19.60;99.90;;;;;;5124276;28;20054;-74
2023/10/22 06:36:55;;;;;;;12.23;8.00;;;19.70;99.90;;;;;;5127980;28;20490;-74
2023/10/22 06:39:27;;;;;;;11.45;8.18;;;19.80;99.90;;;;;;5127623;29;20031;-74
2023/10/22 06:41:59;;;;;;;8.70;7.60;;;19.80;99.90;;;;;;5126345;28;20464;-81
2023/10/22 06:44:30;;;;;;;15.40;7.68;;;19.80;99.90;;;;;;5125357;28;20119;-73
2023/10/22 06:47:01;;;;;;;11.70;8.10;;;20.00;99.90;;;;;;5120432;28;20114;-73
2023/10/22 06:49:31;;;;;;;10.38;7.93;;;20.20;99.90;;;;;;5115018;29;20039;-73
2023/10/22 06:52:03;;;;;;;10.32;7.70;;;20.30;99.90;;;;;;5116445;28;20114;-77
2023/10/22 06:54:34;;;;;;;12.25;7.75;;;20.50;99.90;;;;;;5113435;28;20605;-76
2023/10/22 06:57:05;;;;;;;11.20;7.45;;;20.50;99.90;;;;;;5114191;28;20027;-78
2023/10/22 06:59:36;;;;;;;12.55;8.30;;;20.70;99.90;;;;;;5118612;28;20031;-78
2023/10/22 07:02:08;;;;;;;12.23;9.35;;;20.90;99.90;;;;;;5114174;28;20471;-77
2023/10/22 07:04:40;;;;;;;14.75;12.18;;;21.10;99.90;;;;;;5117699;28;20035;-81
2023/10/22 07:07:11;;;;;;;14.02;12.57;;;21.20;99.90;;;;;;5117133;29;20050;-74
2023/10/22 07:09:42;;;;;;;16.15;14.65;;;21.30;99.90;;;;;;5112554;29;20059;-72
2023/10/22 07:12:13;;;;;;;15.02;13.63;;;21.40;99.90;;;;;;5115259;29;20051;-73
2023/10/22 07:14:44;;;;;;;16.25;14.75;;;21.70;99.90;;;;;;5118187;29;20114;-76
2023/10/22 07:17:15;;;;;;;16.90;14.40;;;21.80;99.90;;;;;;5121611;28;20110;-74
2023/10/22 07:19:46;;;;;;;15.55;13.80;;;22.00;99.90;;;;;;5126894;28;20043;-74
2023/10/22 07:22:17;;;;;;;16.42;13.23;;;22.00;99.90;;;;;;5124790;28;20169;-74
2023/10/22 07:24:50;;;;;;;18.15;13.10;;;22.20;99.90;;;;;;5126241;28;20038;-74
2023/10/22 07:27:20;;;;;;;14.25;11.07;;;22.30;99.90;;;;;;5125674;28;20164;-79
2023/10/22 07:29:51;;;;;;;14.80;10.30;;;22.50;99.90;;;;;;5125275;28;20481;-77
2023/10/22 07:32:22;;;;;;;15.00;10.02;;;22.70;99.90;;;;;;5125855;28;20031;-73
2023/10/22 07:34:54;;;;;;;13.15;8.45;;;22.60;99.90;;;;;;5126569;28;20031;-73
2023/10/22 07:37:24;;;;;;;13.15;9.25;;;22.90;99.90;;;;;;5126664;28;20031;-73
2023/10/22 07:39:55;;;;;;;11.43;9.23;;;23.10;99.90;;;;;;5125748;28;20043;-73
2023/10/22 07:42:26;;;;;;;14.90;11.50;;;23.30;99.90;;;;;;5126287;28;20034;-73
2023/10/22 07:44:57;;;;;;;11.35;10.00;;;23.30;99.90;;;;;;5124933;28;20038;-73
2023/10/22 07:47:28;;;;;;;17.27;8.73;;;23.40;99.90;;;;;;5124175;28;20480;-73
2023/10/22 07:49:59;;;;;;;10.77;9.10;;;23.40;99.90;;;;;;5123616;28;20066;-74
2023/10/22 07:52:34;;;;;;;11.57;8.25;;;23.60;99.90;;;;;;5124985;28;20062;-78
2023/10/22 07:55:07;;;;;;;13.65;9.90;;;23.80;99.90;;;;;;5125815;28;20078;-74
2023/10/22 07:57:38;;;;;;;12.85;9.55;;;23.80;99.90;;;;;;5124854;28;20062;-74
2023/10/22 08:00:09;;;;;;;13.68;9.15;;;23.80;99.90;;;;;;5126185;28;20125;-73
2023/10/22 08:02:40;;;;;;;16.42;8.75;;;24.00;99.90;;;;;;5126400;28;20027;-81
2023/10/22 08:05:11;;;;;;;12.63;8.75;;;24.00;99.90;;;;;;5126753;28;20032;-73
2023/10/22 08:07:42;;;;;;;12.57;8.85;;;24.20;99.90;;;;;;5124767;29;20034;-73
2023/10/22 08:10:13;;;;;;;8.60;7.70;;;24.20;99.90;;;;;;5125586;28;20046;-74
2023/10/22 08:12:44;;;;;;;12.15;8.32;;;24.40;99.90;;;;;;5125877;28;20368;-74
2023/10/22 08:15:14;;;;;;;11.85;7.68;;;24.50;99.90;;;;;;5125855;28;20038;-73
2023/10/22 08:17:46;;;;;;;13.23;7.00;;;24.40;99.90;;;;;;5125826;28;20033;-74
2023/10/22 08:20:16;;;;;;;12.40;7.43;;;24.50;99.90;;;;;;5125798;28;20464;-80
2023/10/22 08:22:47;;;;;;;11.32;7.80;;;24.80;99.90;;;;;;5125695;28;20027;-73
2023/10/22 08:25:18;;;;;;;13.57;6.82;;;25.10;99.90;;;;;;5124409;29;20094;-73
2023/10/22 08:27:49;;;;;;;11.88;7.50;;;25.00;99.90;;;;;;5125628;28;20090;-73
2023/10/22 08:30:20;;;;;;;14.75;7.22;;;25.10;99.90;;;;;;5124111;29;20047;-73
2023/10/22 08:32:51;;;;;;;16.73;8.27;;;25.10;99.90;;;;;;5124504;29;20051;-76
2023/10/22 08:35:23;;;;;;;14.52;9.82;;;25.30;99.90;;;;;;5123506;29;20124;-73
2023/10/22 08:37:54;;;;;;;23.77;10.38;;;25.40;99.90;;;;;;5124848;28;20027;-73
2023/10/22 08:40:24;;;;;;;16.38;11.98;;;25.50;99.90;;;;;;5122955;29;20039;-74
2023/10/22 08:42:57;;;;;;;16.60;11.27;;;25.60;99.90;;;;;;5124231;28;20022;-76
2023/10/22 08:45:28;;;;;;;16.60;11.75;;;25.60;99.90;;;;;;5124037;28;20117;-73
2023/10/22 08:48:03;;;;;;;16.00;11.68;;;25.80;99.90;;;;;;5124200;28;20504;-73
2023/10/22 08:50:37;;;;;;;18.30;10.63;;;25.90;99.90;;;;;;5125148;28;20407;-74
2023/10/22 08:53:08;;;;;;;21.00;10.77;;;26.00;99.90;;;;;;5125078;28;20023;-73
2023/10/22 08:55:49;;;;;;;14.27;7.22;;;26.00;99.90;;;;;;5125113;28;20027;-73
2023/10/22 08:58:20;;;;;;;14.88;8.23;;;25.80;99.90;;;;;;5124704;28;20468;-73
2023/10/22 09:00:51;;;;;;;17.25;8.57;;;25.80;99.90;;;;;;5124870;28;20031;-73
2023/10/22 09:03:25;;;;;;;16.90;8.63;;;25.80;99.90;;;;;;5124943;28;20023;-79
2023/10/22 09:05:57;;;;;;;14.35;8.38;;;25.90;99.90;;;;;;5125151;28;20035;-73
2023/10/22 09:08:44;;;;;;;14.80;9.10;;;26.10;99.90;;;;;;5124720;28;20034;-73
2023/10/22 09:11:16;;;;;;;18.27;9.60;;;26.30;99.90;;;;;;5125055;28;20462;-74
2023/10/22 09:13:48;;;;;;;16.90;9.20;;;26.20;99.90;;;;;;5125053;28;20077;-73
2023/10/22 09:16:28;;;;;;;18.27;8.27;;;26.20;99.90;;;;;;5123847;28;20023;-74
2023/10/22 09:19:01;;;;;;;19.38;9.02;;;26.50;99.90;;;;;;5133340;28;20035;-74
2023/10/22 09:21:43;;;;;;;17.02;8.00;;;26.50;99.90;;;;;;5125715;28;20103;-81
2023/10/22 09:24:14;;;;;;;11.60;7.50;;;26.80;99.90;;;;;;5124309;28;20034;-73
2023/10/22 09:26:49;;;;;;;12.35;7.82;;;26.70;99.90;;;;;;5131710;28;20825;-75
2023/10/22 09:29:20;;;;;;;15.45;7.93;;;26.80;99.90;;;;;;5120747;28;20039;-78
2023/10/22 09:31:54;;;;;;;18.58;9.25;;;27.00;99.90;;;;;;5123522;28;20042;-73
2023/10/22 09:34:28;;;;;;;16.38;9.50;;;27.00;99.90;;;;;;5122885;28;20020;-78
2023/10/22 09:36:59;;;;;;;14.77;8.80;;;27.00;99.90;;;;;;5127749;28;20031;-74
2023/10/22 09:39:38;;;;;;;15.63;9.50;;;27.10;99.90;;;;;;5121481;29;20098;-73
2023/10/22 09:42:11;;;;;;;10.20;8.85;;;26.90;99.90;;;;;;5125116;28;20022;-74
2023/10/22 09:44:44;;;;;;;20.25;10.05;;;27.00;99.90;;;;;;5122920;28;20027;-73
2023/10/22 09:47:21;;;;;;;14.52;10.15;;;26.40;99.90;;;;;;5123785;28;20424;-74
2023/10/22 09:49:59;;;;;;;12.88;8.80;;;27.00;99.90;;;;;;5136788;28;20511;-73
2023/10/22 09:52:35;;;;;;;15.73;9.80;;;27.20;99.90;;;;;;5135577;28;20133;-75
2023/10/22 09:55:11;;;;;;;16.70;9.90;;;27.20;99.90;;;;;;5124856;28;20030;-80
2023/10/22 09:57:45;;;;;;;19.98;10.25;;;27.60;99.90;;;;;;5121797;28;20039;-79
2023/10/22 10:00:17;;;;;;;15.07;8.82;;;28.00;99.90;;;;;;5123712;28;20024;-74
2023/10/22 10:02:49;;;;;;;17.08;9.38;;;27.90;99.90;;;;;;5122622;29;20039;-76
2023/10/22 10:05:21;;;;;;;15.65;10.02;;;28.00;99.90;;;;;;5123964;28;20123;-81
2023/10/22 10:07:52;;;;;;;16.13;8.55;;;28.00;99.90;;;;;;5123617;28;20066;-74
2023/10/22 10:10:24;;;;;;;11.15;8.23;;;28.10;99.90;;;;;;5143645;28;20050;-75
2023/10/22 10:12:55;;;;;;;16.75;8.90;;;28.10;99.90;;;;;;5136756;28;20062;-74
2023/10/22 10:15:33;;;;;;;17.95;7.85;;;28.00;99.90;;;;;;5128099;28;20094;-73
2023/10/22 10:18:06;;;;;;;16.70;8.88;;;28.00;99.90;;;;;;5128040;28;20042;-73
2023/10/22 10:20:39;;;;;;;22.42;9.32;;;28.00;99.90;;;;;;5128230;28;20474;-73
2023/10/22 10:23:19;;;;;;;19.92;8.45;;;28.00;99.90;;;;;;5128176;28;20115;-73
2023/10/22 10:25:49;;;;;;;15.50;9.75;;;28.50;99.90;;;;;;5127921;28;20031;-74
2023/10/22 10:28:39;;;;;;;21.85;9.25;;;28.40;99.90;;;;;;5130267;28;20610;-74
2023/10/22 10:31:27;;;;;;;20.95;9.23;;;28.50;99.90;;;;;;5138291;28;20034;-74
2023/10/22 10:34:02;;;;;;;16.55;9.77;;;28.50;99.90;;;;;;5133249;28;20030;-74
2023/10/22 10:36:34;;;;;;;19.70;10.23;;;28.40;99.90;;;;;;5125229;29;20455;-74
2023/10/22 10:39:40;;;;;;;15.80;11.23;;;28.50;99.90;;;;;;5127607;28;20086;-74
2023/10/22 10:42:15;;;;;;;16.30;9.25;;;28.80;99.90;;;;;;5126576;28;20042;-75
2023/10/22 10:45:07;;;;;;;15.25;9.82;;;29.00;99.90;;;;;;5127893;28;20038;-74
2023/10/22 10:47:40;;;;;;;17.00;12.48;;;28.90;99.90;;;;;;5126740;29;20186;-74
2023/10/22 10:50:17;;;;;;;16.55;12.23;;;28.90;99.90;;;;;;5130936;28;20437;-88
2023/10/22 10:52:48;;;;;;;21.77;13.20;;;28.70;99.90;;;;;;5137709;28;20361;-88
2023/10/22 10:55:19;;;;;;;24.20;12.82;;;28.60;99.90;;;;;;5140652;28;20038;-74
2023/10/22 10:57:51;;;;;;;26.83;12.88;;;28.90;99.90;;;;;;5147295;28;20023;-78
2023/10/22 11:00:28;;;;;;;23.15;12.55;;;28.90;99.90;;;;;;5128470;28;20037;-75
2023/10/22 11:03:02;;;;;;;18.50;11.25;;;29.30;99.90;;;;;;5127505;28;20461;-75
2023/10/22 11:05:42;;;;;;;31.90;13.55;;;29.40;99.90;;;;;;5127264;28;20027;-74
2023/10/22 11:08:22;;;;;;;26.20;12.00;;;29.00;99.90;;;;;;5127169;28;20043;-74
2023/10/22 11:10:52;;;;;;;24.58;12.20;;;28.90;99.90;;;;;;5127040;28;20051;-75
2023/10/22 11:13:27;;;;;;;16.98;12.63;;;28.90;99.90;;;;;;5125603;29;20034;-75
2023/10/22 11:16:04;;;;;;;23.08;13.85;;;28.50;99.90;;;;;;5125779;29;20031;-74
2023/10/22 11:18:53;;;;;;;21.55;13.30;;;28.60;99.90;;;;;;5125764;29;20046;-75
2023/10/22 11:21:24;;;;;;;;;;;28.60;99.90;;;;;;5125684;28;20383;-75
2023/10/22 11:23:55;;;;;;;20.73;12.30;;;29.20;99.90;;;;;;5141141;28;19913;-74
2023/10/22 11:26:26;;;;;;;20.08;11.32;;;29.10;99.90;;;;;;5125584;28;20126;-74
2023/10/22 11:28:57;;;;;;;23.25;13.48;;;29.00;99.90;;;;;;5125984;28;20058;-75
2023/10/22 11:31:28;;;;;;;24.52;13.88;;;28.60;99.90;;;;;;5125529;29;20039;-76
2023/10/22 11:34:15;;;;;;;21.70;10.70;;;29.00;99.90;;;;;;5125807;28;20030;-76
2023/10/22 11:36:46;;;;;;;18.75;10.98;;;29.10;99.90;;;;;;5125761;28;20031;-74
2023/10/22 11:39:21;;;;;;;23.55;11.77;;;29.20;99.90;;;;;;5126525;28;20035;-75
2023/10/22 11:42:00;;;;;;;15.13;11.40;;;29.00;99.90;;;;;;5126884;28;20467;-75
2023/10/22 11:44:35;;;;;;;18.45;9.27;;;29.30;99.90;;;;;;5130408;28;20069;-76
2023/10/22 11:47:26;;;;;;;16.92;10.70;;;29.20;99.90;;;;;;5145818;28;20031;-75
2023/10/22 11:49:58;;;;;;;18.40;11.23;;;29.10;99.90;;;;;;5144919;28;20035;-74
2023/10/22 11:52:38;;;;;;;21.45;11.30;;;28.90;99.90;;;;;;5144926;28;20183;-76
2023/10/22 11:55:09;;;;;;;18.35;11.70;;;29.10;99.90;;;;;;5146007;28;20035;-78
2023/10/22 11:57:40;;;;;;;21.23;12.68;;;29.30;99.90;;;;;;5144857;28;20015;-76
2023/10/22 12:00:11;;;;;;;17.98;12.10;;;29.10;99.90;;;;;;5146252;28;20041;-75
2023/10/22 12:02:42;;;;;;;21.13;10.98;;;29.30;99.90;;;;;;5145008;28;20431;-75
2023/10/22 12:05:14;;;;;;;23.45;12.15;;;29.50;99.90;;;;;;5145071;28;20478;-76
2023/10/22 12:07:45;;;;;;;29.35;9.90;;;29.30;99.90;;;;;;5146320;28;20110;-74
2023/10/22 12:10:17;;;;;;;17.55;11.30;;;29.40;99.90;;;;;;5128524;28;20142;-75
2023/10/22 12:12:49;;;;;;;28.38;11.55;;;29.50;99.90;;;;;;5134860;28;20042;-82
2023/10/22 12:15:20;;;;;;;24.67;12.82;;;29.40;99.90;;;;;;5123525;29;20510;-75
2023/10/22 12:17:51;;;;;;;19.17;11.07;;;29.20;99.90;;;;;;5124454;28;20034;-75
2023/10/22 12:20:22;;;;;;;19.73;11.60;;;28.70;99.90;;;;;;5124415;28;20027;-74
2023/10/22 12:22:53;;;;;;;17.73;10.10;;;28.60;99.90;;;;;;5124606;28;20046;-74
2023/10/22 12:25:24;;;;;;;18.40;12.40;;;28.40;99.90;;;;;;5124009;28;20046;-74
2023/10/22 12:27:55;;;;;;;23.42;14.55;;;28.30;99.90;;;;;;5122842;28;20035;-75
2023/10/22 12:30:26;;;;;;;19.80;13.75;;;28.10;99.90;;;;;;5123091;29;20082;-74
2023/10/22 12:32:57;;;;;;;22.35;16.33;;;27.80;99.90;;;;;;5124266;28;20027;-75
2023/10/22 12:35:28;;;;;;;25.42;16.67;;;27.60;99.90;;;;;;5125199;28;20028;-74
2023/10/22 12:37:58;;;;;;;20.42;14.88;;;27.40;99.90;;;;;;5125419;28;20038;-73
2023/10/22 12:40:29;;;;;;;24.65;14.32;;;27.10;99.90;;;;;;5125371;28;20038;-76
2023/10/22 12:43:00;;;;;;;20.55;11.15;;;26.80;99.90;;;;;;5125352;28;20035;-74
2023/10/22 12:45:31;;;;;;;15.60;10.68;;;26.50;99.90;;;;;;5125380;28;20023;-74
2023/10/22 12:48:03;;;;;;;19.02;11.82;;;26.50;99.90;;;;;;5125622;28;20038;-74
2023/10/22 12:50:34;;;;;;;20.85;9.98;;;26.40;99.90;;;;;;5125599;28;20035;-74
2023/10/22 12:53:05;;;;;;;20.70;11.55;;;26.40;99.90;;;;;;5125246;28;20028;-75
2023/10/22 12:55:35;;;;;;;21.15;12.75;;;26.20;99.90;;;;;;5125243;28;20024;-86